createdAt,value
2022-08-22T00:01:03.597Z,65.51
2022-08-22T00:02:45.720Z,59.39
2022-08-22T00:03:04.492Z,63.03
2022-08-22T00:03:09.413Z,63.50
2022-08-22T00:03:10.471Z,64.54
2022-08-22T00:03:12.645Z,63.78
2022-08-22T00:03:49.912Z,65.64
2022-08-22T00:06:16.497Z,65.54
2022-08-22T00:08:55.658Z,65.45
2022-08-22T00:11:43.906Z,65.75
2022-08-22T00:14:17.855Z,65.22
2022-08-22T00:17:10.035Z,64.78
2022-08-22T00:20:06.550Z,64.79
2022-08-22T00:22:56.828Z,65.24
2022-08-22T00:26:01.527Z,64.79
2022-08-22T00:28:41.512Z,64.97
2022-08-22T00:31:36.737Z,64.32
2022-08-22T00:34:16.030Z,64.27
2022-08-22T00:36:52.798Z,64.15
2022-08-22T00:39:21.548Z,63.87
2022-08-22T00:41:50.967Z,63.82
2022-08-22T00:44:31.195Z,64.12
2022-08-22T00:47:34.689Z,63.84
2022-08-22T00:50:36.711Z,63.86
2022-08-22T00:53:21.836Z,64.09
2022-08-22T00:56:03.440Z,64.25
2022-08-22T00:58:56.065Z,64.27
2022-08-22T01:01:33.757Z,64.03
2022-08-22T01:04:40.659Z,64.17
2022-08-22T01:07:38.273Z,64.70
2022-08-22T01:10:23.950Z,64.58
2022-08-22T01:13:16.875Z,64.94
2022-08-22T01:15:44.780Z,65.76
2022-08-22T01:18:29.205Z,65.70
2022-08-22T01:21:02.254Z,65.77
2022-08-22T01:24:06.504Z,64.88
2022-08-22T01:26:57.607Z,64.25
2022-08-22T01:30:02.927Z,64.43
2022-08-22T01:32:35.387Z,64.43
2022-08-22T01:35:10.806Z,64.10
2022-08-22T01:37:52.439Z,64.45
2022-08-22T01:40:53.599Z,64.34
2022-08-22T01:43:59.799Z,64.16
2022-08-22T01:46:49.239Z,64.64
2022-08-22T01:49:21.705Z,64.57
2022-08-22T01:51:56.645Z,64.08
2022-08-22T01:54:45.275Z,63.94
2022-08-22T01:57:13.396Z,64.51
2022-08-22T01:59:43.115Z,64.95
2022-08-22T02:02:09.715Z,64.38
2022-08-22T02:04:36.305Z,64.63
2022-08-22T02:07:11.684Z,64.08
2022-08-22T02:10:08.937Z,63.94
2022-08-22T02:12:41.831Z,64.26
2022-08-22T02:15:29.849Z,64.42
2022-08-22T02:18:05.333Z,64.84
2022-08-22T02:20:56.203Z,64.51
2022-08-22T02:23:29.612Z,64.73
2022-08-22T02:26:02.106Z,64.56
2022-08-22T02:28:56.960Z,64.47
2022-08-22T02:31:37.283Z,65.04
2022-08-22T02:34:36.836Z,65.20
2022-08-22T02:37:48.096Z,65.15
2022-08-22T02:40:30.779Z,66.08
2022-08-22T02:43:12.859Z,65.89
2022-08-22T02:46:03.520Z,65.32
2022-08-22T02:48:48.135Z,65.32
2022-08-22T02:51:36.052Z,65.54
2022-08-22T02:54:26.341Z,65.46
2022-08-22T02:57:05.881Z,65.76
2022-08-22T02:59:59.251Z,65.82
2022-08-22T03:02:31.612Z,65.81
2022-08-22T03:05:23.263Z,65.45
2022-08-22T03:08:05.006Z,65.15
2022-08-22T03:10:41.027Z,65.32
2022-08-22T03:13:12.151Z,64.99
2022-08-22T03:15:49.424Z,65.10
2022-08-22T03:18:19.662Z,64.87
2022-08-22T03:21:11.104Z,64.74
2022-08-22T03:23:49.224Z,64.28
2022-08-22T03:26:25.647Z,64.53
2022-08-22T03:29:00.388Z,64.38
2022-08-22T03:31:29.133Z,64.49
2022-08-22T03:34:14.285Z,64.34
2022-08-22T03:36:48.398Z,64.63
2022-08-22T03:39:37.828Z,64.17
2022-08-22T03:42:16.440Z,64.47
2022-08-22T03:44:48.933Z,64.71
2022-08-22T03:47:34.196Z,64.86
2022-08-22T03:50:31.511Z,65.25
2022-08-22T03:53:23.208Z,65.13
2022-08-22T03:56:15.379Z,65.18
2022-08-22T03:59:15.802Z,65.90
2022-08-22T04:02:29.449Z,66.17
2022-08-22T04:05:28.678Z,66.32
2022-08-22T04:08:43.935Z,65.67
2022-08-22T04:11:41.901Z,67.68
2022-08-22T04:14:24.319Z,68.50
2022-08-22T04:17:00.132Z,68.19
2022-08-22T04:19:38.780Z,67.27
2022-08-22T04:22:35.976Z,67.49
2022-08-22T04:25:31.462Z,66.97
2022-08-22T04:28:10.304Z,67.13
2022-08-22T04:30:46.604Z,67.41
2022-08-22T04:33:23.550Z,68.00
2022-08-22T04:36:13.489Z,69.40
2022-08-22T04:38:43.725Z,69.67
2022-08-22T04:41:30.350Z,70.11
2022-08-22T04:44:02.213Z,70.00
2022-08-22T04:46:46.629Z,70.43
2022-08-22T04:49:34.746Z,70.43
2022-08-22T04:52:07.442Z,69.85
2022-08-22T04:54:57.124Z,69.89
2022-08-22T04:58:02.086Z,69.74
2022-08-22T05:01:00.226Z,69.64
2022-08-22T05:03:28.975Z,68.98
2022-08-22T05:05:59.701Z,68.43
2022-08-22T05:08:32.219Z,67.95
2022-08-22T05:11:02.487Z,67.67
2022-08-22T05:13:43.210Z,68.36
2022-08-22T05:16:19.119Z,68.86
2022-08-22T05:18:54.649Z,68.49
2022-08-22T05:21:27.449Z,68.06
2022-08-22T05:24:11.905Z,67.77
2022-08-22T05:26:42.987Z,67.76
2022-08-22T05:29:13.573Z,67.70
2022-08-22T05:31:56.258Z,67.81
2022-08-22T05:34:26.154Z,67.58
2022-08-22T05:37:01.959Z,67.32
2022-08-22T05:39:30.063Z,67.97
2022-08-22T05:42:00.396Z,68.51
2022-08-22T05:44:32.238Z,68.27
2022-08-22T05:47:06.024Z,68.34
2022-08-22T05:49:53.837Z,68.55
2022-08-22T05:52:59.375Z,68.30
2022-08-22T05:55:36.820Z,67.88
2022-08-22T05:58:24.987Z,67.63
2022-08-22T06:01:05.047Z,67.18
2022-08-22T06:03:41.679Z,66.81
2022-08-22T06:06:16.533Z,66.90
2022-08-22T06:09:01.629Z,67.64
2022-08-22T06:11:58.176Z,66.90
2022-08-22T06:14:38.685Z,66.39
2022-08-22T06:17:20.551Z,66.33
2022-08-22T06:19:50.775Z,66.25
2022-08-22T06:22:24.748Z,66.16
2022-08-22T06:24:54.083Z,66.15
2022-08-22T06:27:26.367Z,65.79
2022-08-22T06:30:03.114Z,65.88
2022-08-22T06:32:58.460Z,66.16
2022-08-22T06:35:59.352Z,65.95
2022-08-22T06:38:34.864Z,66.05
2022-08-22T06:41:06.877Z,65.76
2022-08-22T06:43:39.425Z,65.83
2022-08-22T06:46:07.543Z,65.29
2022-08-22T06:48:36.200Z,65.22
2022-08-22T06:51:06.486Z,65.58
2022-08-22T06:53:35.777Z,63.59
2022-08-22T06:56:06.000Z,63.44
2022-08-22T06:58:42.080Z,63.63
2022-08-22T07:01:50.285Z,62.73
2022-08-22T07:04:17.957Z,62.12
2022-08-22T07:06:50.233Z,61.62
2022-08-22T07:09:22.318Z,61.05
2022-08-22T07:11:49.655Z,60.84
2022-08-22T07:14:24.792Z,60.68
2022-08-22T07:17:01.047Z,59.76
2022-08-22T07:19:33.320Z,59.28
2022-08-22T07:22:14.232Z,58.42
2022-08-22T07:24:47.567Z,58.32
2022-08-22T07:27:29.351Z,56.10
2022-08-22T07:30:10.131Z,57.69
2022-08-22T07:32:46.501Z,56.37
2022-08-22T07:35:18.562Z,55.41
2022-08-22T07:38:00.735Z,55.02
2022-08-22T07:41:00.690Z,52.06
2022-08-22T07:43:32.859Z,51.93
2022-08-22T07:46:14.541Z,52.44
2022-08-22T07:49:08.109Z,53.63
2022-08-22T07:51:48.180Z,51.46
2022-08-22T07:54:22.423Z,52.91
2022-08-22T07:57:01.797Z,52.65
2022-08-22T07:59:29.748Z,50.94
2022-08-22T08:01:59.858Z,51.41
2022-08-22T08:04:36.886Z,51.49
2022-08-22T08:07:09.143Z,50.91
2022-08-22T08:09:41.289Z,51.24
2022-08-22T08:12:11.656Z,52.56
2022-08-22T08:14:49.539Z,50.35
2022-08-22T08:20:17.884Z,49.05
2022-08-22T08:22:46.223Z,49.54
2022-08-22T08:25:17.595Z,49.06
2022-08-22T08:28:03.929Z,51.74
2022-08-22T08:30:56.164Z,51.06
2022-08-22T08:33:28.242Z,49.76
2022-08-22T08:36:20.099Z,50.20
2022-08-22T08:38:53.421Z,49.96
2022-08-22T08:41:41.022Z,47.71
2022-08-22T08:44:35.798Z,47.67
2022-08-22T08:47:15.279Z,47.77
2022-08-22T08:49:57.223Z,46.07
2022-08-22T08:52:42.616Z,46.04
2022-08-22T08:55:27.651Z,46.62
2022-08-22T08:58:12.844Z,44.01
2022-08-22T09:00:54.864Z,47.15
2022-08-22T09:03:35.771Z,43.94
2022-08-22T09:06:28.794Z,44.61
2022-08-22T09:09:14.203Z,47.52
2022-08-22T09:12:08.582Z,44.90
2022-08-22T09:15:01.513Z,44.75
2022-08-22T09:17:51.879Z,44.23
2022-08-22T09:20:47.569Z,47.12
2022-08-22T09:23:53.371Z,43.35
2022-08-22T09:26:35.915Z,41.73
2022-08-22T09:29:28.989Z,42.94
2022-08-22T09:32:13.152Z,46.30
2022-08-22T09:35:01.968Z,44.53
2022-08-22T09:37:37.434Z,48.09
2022-08-22T09:40:20.423Z,45.38
2022-08-22T09:43:28.590Z,40.98
2022-08-22T09:46:19.021Z,39.38
2022-08-22T09:49:07.846Z,39.78
2022-08-22T09:51:56.030Z,38.62
2022-08-22T09:54:58.057Z,39.60
2022-08-22T09:58:03.010Z,40.25
2022-08-22T10:00:47.440Z,40.50
2022-08-22T10:04:09.644Z,43.56
2022-08-22T10:06:46.326Z,45.49
2022-08-22T10:09:31.447Z,44.37
2022-08-22T10:12:12.432Z,45.01
2022-08-22T10:14:58.350Z,42.44
2022-08-22T10:17:40.949Z,43.42
2022-08-22T10:20:21.255Z,43.88
2022-08-22T10:23:08.869Z,44.19
2022-08-22T10:26:22.847Z,43.41
2022-08-22T10:29:01.191Z,40.17
2022-08-22T10:31:58.373Z,43.87
2022-08-22T10:34:36.221Z,41.86
2022-08-22T10:37:12.026Z,41.67
2022-08-22T10:39:44.198Z,44.69
2022-08-22T10:42:28.463Z,44.43
2022-08-22T10:45:23.703Z,39.33
2022-08-22T10:48:08.817Z,41.56
2022-08-22T10:51:12.512Z,40.76
2022-08-22T10:53:57.935Z,41.32
2022-08-22T10:56:48.068Z,40.65
2022-08-22T10:59:33.567Z,41.62
2022-08-22T11:02:10.231Z,38.85
2022-08-22T11:04:51.808Z,39.67
2022-08-22T11:07:41.956Z,40.00
2022-08-22T11:10:21.748Z,40.01
2022-08-22T11:13:17.493Z,40.99
2022-08-22T11:16:16.296Z,40.49
2022-08-22T11:18:42.899Z,40.12
2022-08-22T11:22:03.641Z,41.04
2022-08-22T11:24:58.041Z,40.53
2022-08-22T11:27:38.400Z,41.21
2022-08-22T11:30:09.541Z,40.75
2022-08-22T11:32:44.978Z,41.16
2022-08-22T11:35:21.890Z,40.64
2022-08-22T11:37:51.343Z,42.09
2022-08-22T11:40:23.395Z,41.27
2022-08-22T11:43:18.164Z,40.29
2022-08-22T11:45:49.461Z,41.00
2022-08-22T11:48:25.096Z,40.73
2022-08-22T11:51:13.726Z,41.22
2022-08-22T11:54:10.347Z,43.34
2022-08-22T11:56:50.029Z,41.75
2022-08-22T11:59:43.123Z,38.66
2022-08-22T12:02:19.536Z,41.23
2022-08-22T12:05:03.906Z,42.54
2022-08-22T12:07:37.646Z,42.90
2022-08-22T12:10:17.801Z,40.52
2022-08-22T12:13:04.561Z,43.87
2022-08-22T12:15:53.873Z,39.17
2022-08-22T12:18:45.048Z,39.29
2022-08-22T12:21:32.972Z,40.19
2022-08-22T12:24:19.278Z,39.72
2022-08-22T12:26:57.548Z,42.45
2022-08-22T12:29:51.298Z,42.80
2022-08-22T12:32:55.144Z,43.96
2022-08-22T12:35:50.691Z,42.70
2022-08-22T12:38:30.687Z,44.09
2022-08-22T12:41:10.863Z,44.73
2022-08-22T12:43:57.095Z,45.13
2022-08-22T12:46:47.384Z,43.68
2022-08-22T12:49:27.201Z,43.61
2022-08-22T12:52:17.043Z,44.42
2022-08-22T12:54:57.411Z,45.37
2022-08-22T12:57:29.734Z,42.63
2022-08-22T13:00:05.593Z,44.46
2022-08-22T13:02:36.042Z,44.76
2022-08-22T13:05:19.513Z,44.85
2022-08-22T13:07:54.536Z,44.82
2022-08-22T13:10:27.119Z,44.99
2022-08-22T13:12:56.431Z,41.93
2022-08-22T13:15:36.050Z,45.10
2022-08-22T13:18:29.190Z,42.81
2022-08-22T13:20:58.325Z,42.53
2022-08-22T13:23:32.659Z,43.16
2022-08-22T13:26:03.636Z,45.00
2022-08-22T13:28:42.057Z,43.74
2022-08-22T13:31:17.735Z,45.21
2022-08-22T13:33:48.034Z,43.76
2022-08-22T13:36:20.062Z,42.80
2022-08-22T13:39:12.090Z,42.99
2022-08-22T13:41:51.439Z,44.13
2022-08-22T13:44:21.269Z,43.26
2022-08-22T13:47:13.201Z,43.30
2022-08-22T13:49:42.196Z,45.24
2022-08-22T13:52:52.303Z,42.79
2022-08-22T13:55:30.125Z,44.86
2022-08-22T13:58:42.995Z,43.90
2022-08-22T14:01:28.420Z,44.00
2022-08-22T14:04:21.865Z,42.06
2022-08-22T14:07:03.387Z,41.01
2022-08-22T14:10:14.882Z,42.09
2022-08-22T14:12:50.191Z,40.62
2022-08-22T14:15:26.765Z,40.87
2022-08-22T14:18:09.600Z,43.98
2022-08-22T14:20:39.467Z,43.00
2022-08-22T14:23:09.247Z,41.69
2022-08-22T14:25:39.186Z,41.53
2022-08-22T14:28:30.711Z,41.83
2022-08-22T14:31:04.181Z,42.50
2022-08-22T14:33:36.599Z,43.86
2022-08-22T14:36:27.071Z,41.67
2022-08-22T14:39:01.966Z,41.10
2022-08-22T14:41:52.448Z,40.91
2022-08-22T14:44:33.452Z,42.12
2022-08-22T14:47:04.921Z,44.21
2022-08-22T14:49:56.301Z,41.62
2022-08-22T14:52:33.800Z,43.21
2022-08-22T14:55:30.650Z,42.58
2022-08-22T14:58:03.419Z,41.87
2022-08-22T15:00:38.348Z,41.85
2022-08-22T15:03:33.400Z,41.51
2022-08-22T15:06:04.567Z,41.18
2022-08-22T15:08:36.099Z,42.53
2022-08-22T15:11:36.601Z,41.56
2022-08-22T15:14:27.186Z,40.81
2022-08-22T15:16:57.832Z,42.90
2022-08-22T15:19:34.708Z,41.71
2022-08-22T15:22:25.765Z,40.75
2022-08-22T15:25:12.335Z,40.86
2022-08-22T15:27:48.788Z,41.42
2022-08-22T15:30:20.362Z,41.23
2022-08-22T15:32:49.195Z,41.93
2022-08-22T15:35:30.069Z,41.85
2022-08-22T15:38:06.943Z,43.63
2022-08-22T15:40:45.740Z,42.66
2022-08-22T15:43:35.542Z,43.05
2022-08-22T15:46:23.110Z,43.92
2022-08-22T15:48:56.035Z,43.85
2022-08-22T15:52:12.411Z,43.99
2022-08-22T15:55:06.920Z,43.61
2022-08-22T15:57:42.415Z,42.82
2022-08-22T16:00:33.052Z,44.32
2022-08-22T16:03:09.178Z,42.83
2022-08-22T16:05:55.573Z,42.25
2022-08-22T16:08:33.084Z,42.63
2022-08-22T16:11:02.952Z,42.31
2022-08-22T16:13:29.867Z,43.97
2022-08-22T16:15:57.095Z,43.88
2022-08-22T16:18:43.270Z,45.61
2022-08-22T16:21:15.261Z,47.55
2022-08-22T16:23:51.296Z,47.28
2022-08-22T16:26:31.565Z,47.81
2022-08-22T16:29:06.952Z,48.10
2022-08-22T16:31:39.655Z,47.34
2022-08-22T16:34:18.419Z,48.11
2022-08-22T16:37:03.374Z,48.41
2022-08-22T16:39:36.421Z,48.07
2022-08-22T16:42:15.171Z,47.88
2022-08-22T16:44:48.913Z,48.64
2022-08-22T16:47:30.350Z,48.26
2022-08-22T16:50:15.479Z,49.33
2022-08-22T16:53:05.168Z,50.27
2022-08-22T16:55:32.579Z,49.89
2022-08-22T16:58:40.030Z,51.00
2022-08-22T17:01:30.151Z,50.03
2022-08-22T17:04:13.281Z,49.36
2022-08-22T17:06:42.726Z,49.37
2022-08-22T17:09:27.868Z,49.37
2022-08-22T17:12:18.587Z,50.26
2022-08-22T17:15:36.928Z,53.24
2022-08-22T17:18:18.659Z,55.38
2022-08-22T17:21:30.194Z,54.73
2022-08-22T17:24:06.798Z,53.30
2022-08-22T17:27:02.059Z,55.48
2022-08-22T17:29:43.013Z,55.14
2022-08-22T17:32:24.282Z,54.10
2022-08-22T17:35:02.627Z,54.04
2022-08-22T17:38:01.021Z,53.85
2022-08-22T17:40:41.754Z,52.74
2022-08-22T17:43:33.508Z,52.88
2022-08-22T17:46:44.098Z,53.37
2022-08-22T17:49:25.675Z,52.22
2022-08-22T17:52:07.728Z,51.69
2022-08-22T17:54:52.781Z,52.39
2022-08-22T17:57:30.930Z,52.09
2022-08-22T18:00:17.975Z,51.28
2022-08-22T18:03:01.319Z,51.66
2022-08-22T18:06:14.664Z,51.43
2022-08-22T18:11:58.435Z,51.41
2022-08-22T18:14:40.556Z,50.91
2022-08-22T18:18:02.605Z,50.30
2022-08-22T18:20:37.799Z,50.17
2022-08-22T18:23:28.447Z,50.07
2022-08-22T18:26:15.681Z,50.27
2022-08-22T18:29:14.673Z,50.27
2022-08-22T18:32:08.775Z,50.23
2022-08-22T18:34:54.844Z,50.73
2022-08-22T18:37:31.555Z,50.42
2022-08-22T18:40:06.320Z,50.16
2022-08-22T18:42:41.803Z,50.42
2022-08-22T18:47:42.054Z,51.03
2022-08-22T18:50:34.507Z,50.88
2022-08-22T18:53:01.884Z,51.29
2022-08-22T18:55:49.521Z,51.28
2022-08-22T18:59:06.155Z,51.04
2022-08-22T19:01:45.047Z,50.72
2022-08-22T19:04:20.543Z,51.03
2022-08-22T19:07:25.948Z,50.97
2022-08-22T19:10:14.758Z,51.03
2022-08-22T19:13:10.865Z,50.73
2022-08-22T19:15:56.001Z,50.80
2022-08-22T19:18:25.367Z,51.40
2022-08-22T19:21:32.188Z,51.01
2022-08-22T19:23:59.908Z,52.50
2022-08-22T19:26:29.434Z,52.38
2022-08-22T19:29:26.731Z,51.64
2022-08-22T19:32:00.337Z,51.46
2022-08-22T19:34:30.085Z,52.94
2022-08-22T19:37:30.674Z,52.82
2022-08-22T19:40:01.120Z,52.13
2022-08-22T19:42:34.741Z,51.87
2022-08-22T19:45:28.960Z,52.33
2022-08-22T19:48:00.293Z,52.71
2022-08-22T19:50:36.193Z,52.69
2022-08-22T19:53:39.846Z,52.66
2022-08-22T19:56:31.056Z,54.28
2022-08-22T19:59:20.133Z,52.74
2022-08-22T20:01:49.681Z,53.22
2022-08-22T20:04:42.804Z,53.07
2022-08-22T20:07:31.219Z,55.20
2022-08-22T20:10:28.150Z,56.52
2022-08-22T20:13:04.294Z,57.76
2022-08-22T20:15:34.140Z,58.06
2022-08-22T20:21:00.376Z,59.97
2022-08-22T20:23:30.890Z,58.14
2022-08-22T20:25:58.856Z,58.70
2022-08-22T20:28:45.072Z,57.28
2022-08-22T20:31:20.968Z,58.53
2022-08-22T20:33:56.679Z,60.49
2022-08-22T20:36:28.549Z,61.16
2022-08-22T20:39:04.985Z,61.48
2022-08-22T20:41:39.644Z,59.89
2022-08-22T20:44:29.780Z,59.75
2022-08-22T20:47:04.320Z,58.51
2022-08-22T20:49:45.977Z,57.95
2022-08-22T20:52:30.692Z,57.45
2022-08-22T20:55:13.624Z,57.17
2022-08-22T20:57:55.941Z,56.74
2022-08-22T21:00:30.639Z,56.79
2022-08-22T21:03:07.742Z,56.30
2022-08-22T21:05:40.427Z,56.48
2022-08-22T21:08:09.157Z,56.49
2022-08-22T21:10:57.017Z,56.12
2022-08-22T21:13:32.489Z,55.67
2022-08-22T21:16:05.169Z,55.44
2022-08-22T21:18:34.891Z,56.34
2022-08-22T21:21:17.128Z,56.87
2022-08-22T21:24:06.329Z,56.83
2022-08-22T21:26:38.571Z,57.06
2022-08-22T21:29:18.327Z,56.99
2022-08-22T21:32:04.540Z,56.94
2022-08-22T21:34:52.163Z,56.81
2022-08-22T21:37:38.293Z,56.71
2022-08-22T21:40:18.085Z,56.38
2022-08-22T21:43:00.838Z,56.95
2022-08-22T21:45:35.735Z,56.51
2022-08-22T21:48:02.735Z,55.82
2022-08-22T21:50:38.458Z,55.57
2022-08-22T21:53:10.282Z,59.89
2022-08-22T21:55:47.107Z,58.94
2022-08-22T21:58:35.649Z,59.71
2022-08-22T22:01:27.881Z,58.79
2022-08-22T22:03:55.429Z,59.19
2022-08-22T22:06:22.087Z,58.80
2022-08-22T22:08:49.103Z,57.59
2022-08-22T22:11:16.501Z,58.08
2022-08-22T22:13:43.554Z,57.62
2022-08-22T22:16:14.744Z,57.18
2022-08-22T22:18:41.476Z,57.09
2022-08-22T22:21:08.942Z,57.50
2022-08-22T22:23:35.628Z,56.82
2022-08-22T22:26:04.838Z,57.10
2022-08-22T22:28:36.122Z,57.00
2022-08-22T22:31:03.651Z,57.21
2022-08-22T22:33:33.511Z,57.36
2022-08-22T22:36:16.097Z,57.70
2022-08-22T22:38:42.901Z,57.30
2022-08-22T22:41:11.251Z,57.09
2022-08-22T22:43:37.913Z,56.90
2022-08-22T22:46:04.882Z,57.09
2022-08-22T22:48:32.131Z,57.81
2022-08-22T22:50:58.847Z,57.91
2022-08-22T22:53:37.954Z,57.88
2022-08-22T22:56:09.666Z,57.42
2022-08-22T22:58:37.691Z,57.25
2022-08-22T23:01:10.226Z,56.79
2022-08-22T23:03:37.070Z,57.11
2022-08-22T23:06:03.891Z,56.86
2022-08-22T23:08:30.684Z,57.47
2022-08-22T23:10:57.515Z,57.10
2022-08-22T23:13:24.210Z,57.85
2022-08-22T23:15:50.849Z,58.63
2022-08-22T23:18:17.575Z,59.17
2022-08-22T23:20:47.535Z,59.19
2022-08-22T23:23:14.193Z,59.66
2022-08-22T23:25:40.835Z,59.20
2022-08-22T23:28:07.533Z,58.55
2022-08-22T23:30:34.183Z,58.83
2022-08-22T23:33:01.122Z,58.82
2022-08-22T23:35:27.880Z,57.91
2022-08-22T23:37:54.519Z,58.60
2022-08-22T23:40:21.260Z,58.44
2022-08-22T23:42:48.047Z,58.25
2022-08-22T23:45:14.745Z,57.56
2022-08-22T23:47:41.400Z,57.60
2022-08-22T23:50:08.526Z,57.34
2022-08-22T23:52:35.295Z,57.66
2022-08-22T23:55:01.928Z,57.49
2022-08-22T23:57:29.458Z,59.02
2022-08-22T23:59:57.750Z,59.79
